Time;durP1;ratioP1;P1;durP2;ratioP2;P2;SDS_P1;SDS_P2;PMS_P1;PMS_P2;Temp;Humidity;BMP_temperature;BMP_pressure;BME280_temperature;BME280_humidity;BME280_pressure;Samples;Min_cycle;Max_cycle;Signal;HPM_P1;HPM_P2
2022/03/06 00:00:13;;;;;;;0.00;0.00;;;4.50;50.70;;;;;;4086432;28;20064;-70
2022/03/06 00:02:36;;;;;;;0.00;0.00;;;4.60;50.70;;;;;;4115240;28;20130;-70
2022/03/06 00:04:59;;;;;;;0.00;0.00;;;4.60;50.60;;;;;;4101997;28;20043;-70
2022/03/06 00:07:28;;;;;;;0.00;0.00;;;4.60;50.60;;;;;;4102691;28;20047;-69
2022/03/06 00:09:53;;;;;;;0.00;0.00;;;4.60;50.70;;;;;;4101753;28;20058;-69
2022/03/06 00:12:25;;;;;;;0.00;0.00;;;4.60;50.70;;;;;;4089597;28;20142;-71
2022/03/06 00:14:51;;;;;;;0.00;0.00;;;4.50;50.70;;;;;;4101712;28;20059;-71
2022/03/06 00:17:17;;;;;;;0.00;0.00;;;4.40;50.70;;;;;;4101982;28;20054;-70
2022/03/06 00:19:41;;;;;;;0.00;0.00;;;4.20;51.10;;;;;;4118069;28;20047;-70
2022/03/06 00:22:09;;;;;;;0.00;0.00;;;4.20;51.30;;;;;;4064551;28;20047;-70
2022/03/06 00:24:37;;;;;;;0.00;0.00;;;4.20;51.20;;;;;;4119085;28;20063;-73
2022/03/06 00:27:03;;;;;;;0.00;0.00;;;4.20;51.20;;;;;;4118465;28;20045;-72
2022/03/06 00:29:26;;;;;;;0.00;0.00;;;4.20;51.00;;;;;;4091727;28;20044;-69
2022/03/06 00:31:53;;;;;;;0.00;0.00;;;4.20;51.30;;;;;;4104991;28;20573;-72
2022/03/06 00:34:15;;;;;;;0.00;0.00;;;4.00;51.40;;;;;;4118142;28;20090;-72
2022/03/06 00:36:45;;;;;;;0.00;0.00;;;3.90;52.00;;;;;;4091900;28;20051;-70
2022/03/06 00:39:12;;;;;;;;;;;3.80;52.10;;;;;;4092243;28;20048;-72
2022/03/06 00:41:37;;;;;;;0.00;0.00;;;3.80;52.10;;;;;;4105228;28;20001;-72
2022/03/06 00:43:59;;;;;;;0.00;0.00;;;3.80;51.90;;;;;;4091853;28;20142;-71
2022/03/06 00:46:28;;;;;;;0.00;0.00;;;3.80;51.80;;;;;;4104181;28;20047;-70
2022/03/06 00:48:54;;;;;;;0.00;0.00;;;3.60;52.40;;;;;;4104632;28;20103;-72
2022/03/06 00:51:16;;;;;;;0.00;0.00;;;3.60;52.40;;;;;;4091578;28;20058;-74
2022/03/06 00:53:43;;;;;;;0.00;0.00;;;3.40;52.90;;;;;;4118184;28;20102;-69
2022/03/06 00:56:05;;;;;;;0.00;0.00;;;3.30;53.20;;;;;;4104282;28;20481;-70
2022/03/06 00:58:35;;;;;;;0.00;0.00;;;3.50;53.00;;;;;;4104540;28;20050;-72
2022/03/06 01:01:00;;;;;;;0.00;0.00;;;3.40;53.10;;;;;;4104399;28;20048;-68
2022/03/06 01:03:26;;;;;;;0.00;0.00;;;3.50;52.90;;;;;;4117984;28;20114;-71
2022/03/06 01:05:49;;;;;;;0.00;0.00;;;3.60;52.80;;;;;;4104268;28;20382;-74
2022/03/06 01:08:14;;;;;;;0.00;0.00;;;3.50;52.80;;;;;;4103357;28;20047;-71
2022/03/06 01:10:38;;;;;;;0.00;0.00;;;3.50;52.90;;;;;;4118469;28;20195;-71
2022/03/06 01:13:01;;;;;;;0.00;0.00;;;3.50;53.00;;;;;;4090746;28;20056;-69
2022/03/06 01:15:40;;;;;;;0.00;0.00;;;3.50;53.00;;;;;;4106249;28;20207;-70
2022/03/06 01:18:13;;;;;;;0.00;0.00;;;3.40;53.20;;;;;;4089355;28;20051;-73
2022/03/06 01:20:40;;;;;;;0.00;0.00;;;3.40;53.50;;;;;;4104816;28;20050;-71
2022/03/06 01:23:04;;;;;;;0.00;0.00;;;3.50;53.30;;;;;;4104078;28;20489;-70
2022/03/06 01:25:30;;;;;;;0.00;0.00;;;3.50;53.80;;;;;;4091459;28;20058;-70
2022/03/06 01:28:01;;;;;;;0.00;0.00;;;3.40;53.30;;;;;;4088950;28;20062;-70
2022/03/06 01:30:29;;;;;;;0.00;0.00;;;3.50;53.30;;;;;;4102917;28;20405;-72
2022/03/06 01:32:56;;;;;;;0.00;0.00;;;3.40;53.80;;;;;;4097476;29;20106;-70
2022/03/06 01:35:19;;;;;;;0.00;0.00;;;3.30;54.00;;;;;;4111965;28;20149;-69
2022/03/06 01:37:42;;;;;;;0.00;0.00;;;3.40;53.80;;;;;;4103953;28;20443;-69
2022/03/06 01:40:06;;;;;;;0.00;0.00;;;3.50;53.40;;;;;;4117029;28;20146;-69
2022/03/06 01:42:29;;;;;;;0.00;0.00;;;3.50;53.30;;;;;;4117379;28;20042;-70
2022/03/06 01:44:54;;;;;;;0.00;0.00;;;3.60;53.40;;;;;;4117086;28;20477;-71
2022/03/06 01:47:34;;;;;;;0.00;0.00;;;3.50;53.40;;;;;;4117985;28;20767;-71
2022/03/06 01:50:01;;;;;;;0.00;0.00;;;3.50;53.40;;;;;;4118230;28;20069;-69
2022/03/06 01:52:30;;;;;;;0.00;0.00;;;3.40;53.60;;;;;;4103989;28;20117;-68
2022/03/06 01:54:55;;;;;;;0.00;0.00;;;3.20;54.00;;;;;;4091441;28;20436;-70
2022/03/06 01:57:25;;;;;;;0.00;0.00;;;3.00;54.40;;;;;;4117457;28;20061;-69
2022/03/06 01:59:52;;;;;;;0.00;0.00;;;3.10;54.60;;;;;;4118094;28;20270;-71
2022/03/06 02:02:16;;;;;;;0.00;0.00;;;3.00;54.80;;;;;;4101676;28;20377;-71
2022/03/06 02:04:41;;;;;;;0.00;0.00;;;3.00;55.00;;;;;;4101735;28;20061;-70
2022/03/06 02:07:03;;;;;;;0.00;0.00;;;2.80;55.20;;;;;;4102008;28;20054;-69
2022/03/06 02:09:28;;;;;;;0.00;0.00;;;2.70;55.50;;;;;;4087937;29;20063;-71
2022/03/06 02:14:38;;;;;;;0.00;0.00;;;2.70;55.60;;;;;;4113834;28;20042;-71
2022/03/06 02:17:06;;;;;;;0.00;0.00;;;2.70;55.60;;;;;;4101088;28;20043;-69
2022/03/06 02:19:28;;;;;;;0.00;0.00;;;2.70;55.80;;;;;;4087569;29;20054;-71
2022/03/06 02:21:53;;;;;;;0.00;0.00;;;2.70;55.90;;;;;;4087767;29;20479;-69
2022/03/06 02:24:15;;;;;;;0.00;0.00;;;2.70;55.90;;;;;;4103623;28;20051;-73
2022/03/06 02:26:38;;;;;;;0.00;0.00;;;2.70;55.80;;;;;;4090529;28;20054;-70
2022/03/06 02:29:06;;;;;;;0.00;0.00;;;2.70;55.90;;;;;;4089968;28;20048;-68
2022/03/06 02:31:28;;;;;;;0.00;0.00;;;2.70;56.00;;;;;;4103312;28;20047;-71
2022/03/06 02:33:50;;;;;;;0.00;0.00;;;2.70;56.00;;;;;;4103232;28;20386;-73
2022/03/06 02:36:12;;;;;;;0.00;0.00;;;2.60;56.00;;;;;;4102890;28;20109;-69
2022/03/06 02:38:39;;;;;;;0.00;0.00;;;2.70;56.00;;;;;;4103171;28;20049;-71
2022/03/06 02:41:01;;;;;;;0.00;0.00;;;2.70;55.90;;;;;;4103058;28;20051;-73
2022/03/06 02:43:25;;;;;;;0.00;0.00;;;2.80;55.90;;;;;;4089791;28;20103;-70
2022/03/06 02:45:48;;;;;;;0.00;0.00;;;2.70;55.90;;;;;;4076020;28;20059;-70
2022/03/06 02:48:10;;;;;;;0.00;0.00;;;2.60;56.00;;;;;;4102684;28;20827;-67
2022/03/06 02:50:40;;;;;;;0.00;0.00;;;2.50;56.30;;;;;;4116318;28;20393;-70
2022/03/06 02:53:06;;;;;;;0.00;0.00;;;2.50;56.50;;;;;;4089500;28;20389;-71
2022/03/06 02:55:31;;;;;;;0.00;0.00;;;2.40;56.90;;;;;;4102713;28;20057;-72
2022/03/06 02:57:56;;;;;;;0.00;0.00;;;2.30;57.10;;;;;;4102608;28;20074;-69
2022/03/06 03:00:20;;;;;;;0.00;0.00;;;2.30;57.20;;;;;;4102178;28;20066;-71
2022/03/06 03:02:42;;;;;;;0.00;0.00;;;2.30;57.50;;;;;;4102869;28;20450;-69
2022/03/06 03:05:10;;;;;;;0.00;0.00;;;2.30;57.30;;;;;;4102749;28;20046;-72
2022/03/06 03:07:35;;;;;;;0.00;0.00;;;2.30;57.30;;;;;;4089544;28;20043;-71
2022/03/06 03:09:57;;;;;;;0.00;0.00;;;2.40;57.10;;;;;;4102369;28;20050;-70
2022/03/06 03:12:24;;;;;;;0.00;0.00;;;2.60;56.70;;;;;;4088039;28;20504;-72
2022/03/06 03:14:49;;;;;;;0.00;0.00;;;2.60;56.50;;;;;;4102454;28;20055;-70
2022/03/06 03:17:11;;;;;;;0.00;0.00;;;2.50;56.60;;;;;;4102281;28;20055;-68
2022/03/06 03:19:36;;;;;;;0.00;0.00;;;2.40;56.80;;;;;;4102347;28;20043;-71
2022/03/06 03:22:06;;;;;;;0.00;0.00;;;2.40;57.00;;;;;;4102661;28;20078;-72
2022/03/06 03:24:31;;;;;;;0.00;0.00;;;2.40;57.00;;;;;;4086266;29;20043;-72
2022/03/06 03:26:56;;;;;;;0.00;0.00;;;2.40;57.30;;;;;;4092776;28;20047;-72
2022/03/06 03:29:23;;;;;;;0.00;0.00;;;2.30;57.30;;;;;;4102126;28;20043;-69
2022/03/06 03:31:45;;;;;;;0.00;0.00;;;2.50;57.20;;;;;;4102273;28;20043;-70
2022/03/06 03:34:10;;;;;;;0.00;0.00;;;2.50;57.70;;;;;;4101838;28;20047;-71
2022/03/06 03:36:34;;;;;;;0.00;0.00;;;2.50;57.10;;;;;;4102124;28;20046;-70
2022/03/06 03:38:56;;;;;;;0.00;0.00;;;2.40;57.20;;;;;;4088770;28;20043;-72
2022/03/06 03:41:18;;;;;;;0.00;0.00;;;2.40;57.30;;;;;;4102021;28;20102;-70
2022/03/06 03:43:45;;;;;;;0.00;0.00;;;2.30;57.50;;;;;;4102160;28;20537;-70
2022/03/06 03:46:09;;;;;;;0.00;0.00;;;2.20;57.60;;;;;;4101728;28;20051;-71
2022/03/06 03:48:34;;;;;;;0.00;0.00;;;2.10;57.80;;;;;;4102109;28;20054;-70
2022/03/06 03:50:59;;;;;;;0.00;0.00;;;2.10;58.00;;;;;;4101999;28;20054;-69
2022/03/06 03:53:24;;;;;;;0.00;0.00;;;2.20;57.90;;;;;;4102035;28;20061;-71
2022/03/06 03:55:50;;;;;;;0.00;0.00;;;2.20;57.90;;;;;;4115439;28;20539;-73
2022/03/06 03:58:12;;;;;;;0.00;0.00;;;2.20;57.90;;;;;;4101477;28;20117;-68
2022/03/06 04:00:34;;;;;;;0.00;0.00;;;2.20;57.90;;;;;;4115198;28;20046;-69
2022/03/06 04:03:01;;;;;;;0.00;0.00;;;2.30;58.00;;;;;;4101996;28;20053;-69
2022/03/06 04:05:26;;;;;;;0.00;0.00;;;2.30;57.90;;;;;;4102083;28;20047;-71
2022/03/06 04:07:50;;;;;;;0.00;0.00;;;2.20;58.00;;;;;;4102185;28;20047;-72
2022/03/06 04:10:17;;;;;;;0.00;0.00;;;2.10;58.30;;;;;;4101377;28;20049;-71
2022/03/06 04:12:39;;;;;;;0.00;0.00;;;2.00;58.80;;;;;;4101835;28;20355;-70
2022/03/06 04:15:01;;;;;;;0.00;0.00;;;2.00;58.90;;;;;;4088635;28;20048;-73
2022/03/06 04:17:26;;;;;;;0.00;0.00;;;2.10;58.70;;;;;;4115450;28;20053;-71
2022/03/06 04:19:53;;;;;;;0.00;0.00;;;2.10;58.50;;;;;;4102130;28;20487;-68
2022/03/06 04:22:15;;;;;;;0.00;0.00;;;2.00;58.90;;;;;;4101786;28;20055;-72
2022/03/06 04:24:42;;;;;;;0.00;0.00;;;2.00;59.30;;;;;;4088893;28;20113;-68
2022/03/06 04:27:07;;;;;;;0.00;0.00;;;2.00;59.40;;;;;;4115333;28;20047;-70
2022/03/06 04:29:34;;;;;;;0.00;0.00;;;1.90;59.40;;;;;;4101782;28;20047;-69
2022/03/06 04:31:56;;;;;;;0.00;0.00;;;1.90;59.60;;;;;;4101725;28;20484;-71
2022/03/06 04:34:19;;;;;;;0.00;0.00;;;1.80;59.80;;;;;;4101414;28;20065;-69
2022/03/06 04:36:42;;;;;;;0.00;0.00;;;1.90;59.90;;;;;;4088710;28;20051;-72
2022/03/06 04:39:05;;;;;;;0.00;0.00;;;2.00;59.70;;;;;;4088635;28;20084;-69
2022/03/06 04:41:29;;;;;;;0.00;0.00;;;1.90;59.80;;;;;;4101833;28;20047;-70
2022/03/06 04:43:54;;;;;;;0.00;0.00;;;1.90;59.90;;;;;;4101873;28;20055;-69
2022/03/06 04:46:16;;;;;;;0.00;0.00;;;1.90;60.00;;;;;;4114402;28;20059;-69
2022/03/06 04:48:38;;;;;;;0.00;0.00;;;1.90;60.10;;;;;;4101444;28;20051;-71
2022/03/06 04:51:04;;;;;;;0.00;0.00;;;1.90;60.20;;;;;;4088336;28;20490;-71
2022/03/06 04:53:26;;;;;;;0.00;0.00;;;1.80;60.50;;;;;;4088534;28;20055;-70
2022/03/06 04:55:50;;;;;;;0.00;0.00;;;1.70;60.70;;;;;;4088627;28;20055;-72
2022/03/06 04:58:13;;;;;;;0.00;0.00;;;1.70;60.80;;;;;;4101345;28;20450;-72
2022/03/06 05:00:35;;;;;;;0.00;0.00;;;1.70;60.80;;;;;;4101664;28;20043;-73
2022/03/06 05:03:00;;;;;;;0.00;0.00;;;1.80;60.80;;;;;;4101421;28;20057;-71
2022/03/06 05:05:27;;;;;;;0.00;0.00;;;1.70;61.00;;;;;;4114926;28;20043;-72
2022/03/06 05:07:49;;;;;;;0.00;0.00;;;1.80;60.90;;;;;;4104753;28;20050;-73
2022/03/06 05:10:11;;;;;;;0.00;0.00;;;1.90;60.80;;;;;;4088381;28;20048;-70
2022/03/06 05:12:41;;;;;;;0.00;0.00;;;1.90;60.50;;;;;;4088587;29;20044;-69
2022/03/06 05:15:07;;;;;;;0.00;0.00;;;1.90;60.60;;;;;;4075859;29;20047;-71
2022/03/06 05:17:31;;;;;;;0.00;0.00;;;1.90;60.50;;;;;;4100022;28;20473;-71
2022/03/06 05:19:55;;;;;;;0.00;0.00;;;1.90;60.30;;;;;;4104397;28;20043;-69
2022/03/06 05:22:18;;;;;;;0.00;0.00;;;2.00;60.30;;;;;;4117184;28;20046;-71
2022/03/06 05:24:40;;;;;;;0.00;0.00;;;2.00;60.20;;;;;;4104522;28;20046;-72
2022/03/06 05:27:06;;;;;;;0.00;0.00;;;2.10;60.10;;;;;;4091237;28;20051;-70
2022/03/06 05:29:31;;;;;;;0.00;0.00;;;1.90;60.40;;;;;;4079926;28;20048;-71
2022/03/06 05:31:58;;;;;;;0.00;0.00;;;1.70;61.00;;;;;;4075400;29;20052;-74
2022/03/06 05:34:20;;;;;;;0.00;0.00;;;1.50;61.70;;;;;;4103758;28;20051;-72
2022/03/06 05:36:42;;;;;;;0.00;0.00;;;1.40;61.90;;;;;;4086124;28;20040;-70
2022/03/06 05:39:04;;;;;;;0.00;0.00;;;1.50;61.90;;;;;;4096303;28;20073;-70
2022/03/06 05:41:26;;;;;;;0.00;0.00;;;1.50;62.10;;;;;;4117426;28;20462;-71
2022/03/06 05:43:48;;;;;;;0.00;0.00;;;1.40;62.40;;;;;;4104055;28;20058;-72
2022/03/06 05:46:11;;;;;;;0.00;0.00;;;1.40;62.70;;;;;;4090057;28;20063;-74
2022/03/06 05:48:33;;;;;;;0.00;0.00;;;1.50;62.70;;;;;;4104150;28;20043;-71
2022/03/06 05:50:58;;;;;;;0.00;0.00;;;1.50;62.60;;;;;;4104084;28;20046;-71
2022/03/06 05:53:23;;;;;;;0.00;0.00;;;1.50;62.50;;;;;;4090445;28;20054;-70
2022/03/06 05:55:45;;;;;;;0.00;0.00;;;1.60;62.30;;;;;;4103919;28;20097;-69
2022/03/06 05:58:07;;;;;;;0.00;0.00;;;1.70;62.00;;;;;;4116537;28;20065;-71
2022/03/06 06:00:30;;;;;;;0.00;0.00;;;1.70;62.10;;;;;;4103429;28;20113;-72
2022/03/06 06:02:57;;;;;;;0.00;0.00;;;1.60;62.20;;;;;;4103513;28;20057;-71
2022/03/06 06:05:19;;;;;;;0.00;0.00;;;1.60;62.30;;;;;;4103699;28;20055;-69
2022/03/06 06:07:41;;;;;;;0.00;0.00;;;1.60;62.40;;;;;;4090223;28;20455;-70
2022/03/06 06:10:07;;;;;;;0.00;0.00;;;1.50;62.50;;;;;;4089833;28;20054;-71
2022/03/06 06:12:32;;;;;;;0.00;0.00;;;1.50;62.70;;;;;;4103733;28;20474;-69
2022/03/06 06:14:54;;;;;;;0.00;0.00;;;1.50;62.80;;;;;;4090323;28;20063;-70
2022/03/06 06:17:19;;;;;;;0.00;0.00;;;1.50;62.90;;;;;;4102979;28;20061;-72
2022/03/06 06:19:45;;;;;;;0.00;0.00;;;1.50;63.00;;;;;;4090183;28;20047;-70
2022/03/06 06:22:08;;;;;;;0.00;0.00;;;1.50;63.20;;;;;;4102455;28;20110;-70
2022/03/06 06:24:34;;;;;;;0.00;0.00;;;1.60;63.00;;;;;;4103123;28;20043;-70
2022/03/06 06:26:56;;;;;;;0.00;0.00;;;1.70;62.80;;;;;;4103254;28;20098;-70
2022/03/06 06:29:21;;;;;;;0.00;0.00;;;1.70;62.90;;;;;;4087507;29;20056;-69
2022/03/06 06:31:43;;;;;;;0.00;0.00;;;1.70;62.70;;;;;;4089991;28;20051;-71
2022/03/06 06:34:08;;;;;;;0.00;0.00;;;1.90;62.60;;;;;;4115999;28;20050;-71
2022/03/06 06:36:33;;;;;;;0.00;0.00;;;2.00;62.40;;;;;;4102988;28;20039;-70
2022/03/06 06:38:57;;;;;;;0.00;0.00;;;2.00;62.40;;;;;;4082940;28;20052;-72
2022/03/06 06:41:22;;;;;;;0.00;0.00;;;2.00;62.40;;;;;;4074102;29;20395;-72
2022/03/06 06:43:51;;;;;;;0.00;0.00;;;2.00;62.40;;;;;;4100530;28;20126;-72
2022/03/06 06:46:14;;;;;;;0.00;0.00;;;2.00;62.50;;;;;;4089068;28;20462;-71
2022/03/06 06:48:36;;;;;;;0.00;0.00;;;2.20;62.40;;;;;;4089672;28;20039;-70
2022/03/06 06:50:58;;;;;;;0.00;0.00;;;2.10;62.20;;;;;;4089707;28;20055;-71
2022/03/06 06:53:20;;;;;;;0.00;0.00;;;2.10;62.30;;;;;;4102869;28;20061;-68
2022/03/06 06:55:42;;;;;;;0.00;0.00;;;2.10;62.40;;;;;;4102741;28;20479;-69
2022/03/06 06:58:07;;;;;;;0.00;0.00;;;2.00;62.70;;;;;;4102137;28;20047;-68
2022/03/06 07:00:32;;;;;;;0.00;0.00;;;2.10;62.70;;;;;;4116016;28;20050;-71
2022/03/06 07:03:00;;;;;;;0.00;0.00;;;2.20;62.70;;;;;;4102665;28;20470;-69
2022/03/06 07:05:22;;;;;;;0.00;0.00;;;2.30;62.60;;;;;;4102451;28;20044;-70
2022/03/06 07:07:47;;;;;;;0.00;0.00;;;2.30;62.40;;;;;;4102773;28;20047;-69
2022/03/06 07:10:09;;;;;;;0.00;0.00;;;2.30;62.30;;;;;;4089086;28;20070;-71
2022/03/06 07:12:40;;;;;;;0.00;0.00;;;2.30;62.40;;;;;;4089181;28;20047;-71
2022/03/06 07:15:04;;;;;;;0.00;0.00;;;2.30;62.50;;;;;;4102592;28;20110;-71
2022/03/06 07:17:26;;;;;;;0.00;0.00;;;2.40;62.60;;;;;;4089187;28;20051;-71
2022/03/06 07:19:49;;;;;;;0.00;0.00;;;2.50;62.50;;;;;;4102210;28;20047;-70
2022/03/06 07:22:11;;;;;;;0.00;0.00;;;2.70;62.00;;;;;;4088530;28;20122;-73
2022/03/06 07:24:33;;;;;;;0.00;0.00;;;3.00;61.70;;;;;;4102329;28;20110;-70
2022/03/06 07:26:57;;;;;;;0.00;0.00;;;3.20;61.20;;;;;;4073404;29;20066;-70
2022/03/06 07:29:19;;;;;;;0.00;0.00;;;3.40;60.80;;;;;;4109070;28;20042;-71
2022/03/06 07:31:44;;;;;;;0.00;0.00;;;3.70;60.40;;;;;;4089254;28;20049;-71
2022/03/06 07:34:10;;;;;;;0.00;0.00;;;4.10;59.60;;;;;;4086381;28;20646;-70
2022/03/06 07:36:33;;;;;;;0.00;0.00;;;4.40;58.80;;;;;;4087013;29;20047;-72
2022/03/06 07:38:55;;;;;;;0.00;0.00;;;4.50;58.20;;;;;;4080261;28;20059;-69
2022/03/06 07:41:17;;;;;;;0.00;0.00;;;4.70;58.20;;;;;;4102320;28;20063;-69
2022/03/06 07:43:42;;;;;;;0.00;0.00;;;4.30;57.70;;;;;;4102360;28;20043;-71
2022/03/06 07:46:04;;;;;;;0.00;0.00;;;4.20;58.50;;;;;;4116067;28;20053;-68
2022/03/06 07:48:26;;;;;;;0.00;0.00;;;4.50;58.80;;;;;;4115349;28;20043;-72
2022/03/06 07:50:51;;;;;;;0.00;0.00;;;4.80;58.40;;;;;;4089358;28;20047;-69
2022/03/06 07:53:13;;;;;;;0.00;0.00;;;5.00;57.50;;;;;;4101822;28;20047;-68
2022/03/06 07:55:37;;;;;;;0.00;0.00;;;5.40;57.00;;;;;;4102210;28;20082;-70
2022/03/06 07:58:05;;;;;;;0.00;0.00;;;5.80;56.20;;;;;;4102415;28;20130;-69
2022/03/06 08:00:27;;;;;;;0.00;0.00;;;5.90;55.50;;;;;;4102046;28;20426;-69
2022/03/06 08:02:55;;;;;;;0.00;0.00;;;5.70;55.70;;;;;;4102527;28;20057;-72
2022/03/06 08:05:18;;;;;;;0.00;0.00;;;5.60;56.10;;;;;;4102532;28;20190;-74
2022/03/06 08:07:42;;;;;;;0.00;0.00;;;5.70;56.20;;;;;;4115610;28;20143;-71
2022/03/06 08:10:06;;;;;;;0.00;0.00;;;6.00;56.20;;;;;;4102596;28;20444;-70
2022/03/06 08:12:28;;;;;;;0.00;0.00;;;6.30;55.60;;;;;;4102670;28;20540;-70
2022/03/06 08:14:53;;;;;;;0.00;0.00;;;6.40;55.10;;;;;;4102566;28;20055;-69
2022/03/06 08:17:16;;;;;;;0.00;0.00;;;5.80;55.30;;;;;;4102386;28;20051;-69
2022/03/06 08:19:43;;;;;;;0.00;0.00;;;5.50;56.50;;;;;;4102182;28;20043;-72
2022/03/06 08:22:07;;;;;;;0.00;0.00;;;5.50;57.00;;;;;;4086171;28;20082;-70
2022/03/06 08:24:31;;;;;;;0.00;0.00;;;5.90;56.40;;;;;;4086245;29;20078;-72
2022/03/06 08:26:56;;;;;;;0.00;0.00;;;6.40;55.60;;;;;;4086619;29;20055;-69
2022/03/06 08:29:20;;;;;;;0.00;0.00;;;6.50;55.60;;;;;;4086440;29;20103;-71
2022/03/06 08:31:49;;;;;;;0.00;0.00;;;6.90;55.20;;;;;;4074095;29;20059;-71
2022/03/06 08:34:11;;;;;;;0.00;0.00;;;6.70;54.70;;;;;;4085674;28;20067;-68
2022/03/06 08:36:35;;;;;;;0.00;0.00;;;6.20;55.10;;;;;;4090233;28;20474;-71
2022/03/06 08:39:02;;;;;;;0.00;0.00;;;6.40;54.80;;;;;;4088662;28;20054;-69
2022/03/06 08:41:24;;;;;;;0.00;0.00;;;6.30;55.50;;;;;;4105307;28;20094;-70
2022/03/06 08:43:47;;;;;;;0.00;0.00;;;6.70;54.90;;;;;;4118522;28;20065;-70
2022/03/06 08:46:09;;;;;;;0.00;0.00;;;6.40;54.90;;;;;;4091225;28;20055;-70
2022/03/06 08:48:36;;;;;;;0.00;0.00;;;6.00;55.80;;;;;;4105293;28;20047;-70
2022/03/06 08:50:59;;;;;;;0.00;0.00;;;5.80;55.70;;;;;;4105036;28;20466;-73
2022/03/06 08:53:23;;;;;;;0.00;0.00;;;6.30;55.80;;;;;;4105129;28;20050;-68
2022/03/06 08:55:45;;;;;;;0.00;0.00;;;6.70;54.20;;;;;;4105042;28;20043;-70
2022/03/06 08:58:10;;;;;;;0.00;0.00;;;6.70;55.40;;;;;;4118385;28;20056;-69
2022/03/06 09:00:32;;;;;;;0.00;0.00;;;6.90;54.00;;;;;;4088150;28;20642;-72
2022/03/06 09:02:56;;;;;;;0.00;0.00;;;6.00;54.50;;;;;;4089202;29;20462;-69
2022/03/06 09:05:21;;;;;;;0.00;0.00;;;5.90;55.70;;;;;;4098800;28;20055;-67
2022/03/06 09:07:45;;;;;;;0.00;0.00;;;6.30;54.60;;;;;;4104745;28;20054;-68
2022/03/06 09:10:10;;;;;;;0.00;0.00;;;6.30;54.60;;;;;;4091330;28;20117;-68
2022/03/06 09:12:33;;;;;;;0.00;0.00;;;6.80;53.90;;;;;;4091733;28;20051;-70
2022/03/06 09:14:55;;;;;;;0.00;0.00;;;7.10;53.50;;;;;;4104754;28;20061;-67
2022/03/06 09:17:21;;;;;;;0.00;0.00;;;8.10;51.50;;;;;;4091678;28;20385;-67
2022/03/06 09:19:48;;;;;;;0.00;0.00;;;8.00;50.50;;;;;;4091485;28;20405;-71
2022/03/06 09:22:10;;;;;;;0.00;0.00;;;7.60;51.60;;;;;;4104356;28;20060;-68
2022/03/06 09:24:32;;;;;;;0.00;0.00;;;7.90;50.90;;;;;;4088050;28;20051;-69
2022/03/06 09:26:54;;;;;;;0.00;0.00;;;8.30;50.90;;;;;;4095573;28;20049;-70
2022/03/06 09:29:19;;;;;;;0.00;0.00;;;8.60;50.30;;;;;;4118141;28;20446;-67
2022/03/06 09:31:42;;;;;;;0.00;0.00;;;8.90;50.00;;;;;;4104526;28;20047;-67
2022/03/06 09:34:04;;;;;;;0.00;0.00;;;9.10;49.90;;;;;;4104543;28;20047;-69
2022/03/06 09:36:39;;;;;;;0.00;0.00;;;9.00;48.60;;;;;;4103921;28;20047;-67
2022/03/06 09:39:03;;;;;;;0.00;0.00;;;8.80;49.70;;;;;;4117981;28;20552;-66
2022/03/06 09:41:28;;;;;;;0.00;0.00;;;8.80;50.70;;;;;;4104380;28;20431;-67
2022/03/06 09:43:55;;;;;;;0.00;0.00;;;9.30;49.40;;;;;;4091191;28;20039;-67
2022/03/06 09:46:20;;;;;;;0.00;0.00;;;9.60;48.40;;;;;;4090639;28;20059;-67
2022/03/06 09:48:42;;;;;;;0.00;0.00;;;9.10;48.70;;;;;;4104387;28;20045;-66
2022/03/06 09:51:05;;;;;;;0.00;0.00;;;8.70;49.80;;;;;;4117352;28;20047;-67
2022/03/06 09:53:30;;;;;;;0.00;0.00;;;9.10;49.10;;;;;;4104239;28;20047;-69
2022/03/06 09:55:54;;;;;;;0.00;0.00;;;9.30;49.00;;;;;;4091139;28;20047;-68
2022/03/06 09:58:21;;;;;;;0.00;0.00;;;8.80;49.50;;;;;;4116968;28;20065;-67
2022/03/06 10:00:45;;;;;;;0.00;0.00;;;9.20;49.90;;;;;;4104089;28;20051;-70
2022/03/06 10:03:17;;;;;;;0.00;0.00;;;10.30;48.60;;;;;;4103719;28;20059;-68
2022/03/06 10:05:46;;;;;;;0.00;0.00;;;10.60;47.60;;;;;;4104118;28;20442;-70
2022/03/06 10:08:25;;;;;;;0.00;0.00;;;11.00;47.40;;;;;;4088196;28;20486;-68
2022/03/06 10:10:57;;;;;;;0.00;0.00;;;11.00;46.30;;;;;;4091206;28;20437;-68
2022/03/06 10:13:43;;;;;;;0.00;0.00;;;11.50;46.00;;;;;;4104104;28;20051;-67
2022/03/06 10:16:19;;;;;;;0.00;0.00;;;11.50;45.70;;;;;;4074641;28;20431;-68
2022/03/06 10:18:52;;;;;;;0.00;0.00;;;11.20;44.70;;;;;;4117192;28;20050;-68
2022/03/06 10:21:19;;;;;;;0.00;0.00;;;11.10;45.50;;;;;;4103798;28;20039;-67
2022/03/06 10:23:45;;;;;;;0.00;0.00;;;10.20;46.10;;;;;;4090449;28;20047;-69
2022/03/06 10:26:17;;;;;;;0.00;0.00;;;10.60;46.20;;;;;;4074479;28;20471;-68
2022/03/06 10:28:56;;;;;;;0.00;0.00;;;9.70;46.70;;;;;;4103514;28;20101;-67
2022/03/06 10:31:19;;;;;;;0.00;0.00;;;9.80;46.60;;;;;;4090364;28;20051;-69
2022/03/06 10:33:59;;;;;;;0.00;0.00;;;9.60;47.00;;;;;;4103704;28;20472;-70
2022/03/06 10:36:30;;;;;;;0.00;0.00;;;10.20;46.60;;;;;;4102888;28;20054;-68
2022/03/06 10:38:55;;;;;;;0.00;0.00;;;10.00;46.70;;;;;;4103410;28;20043;-67
2022/03/06 10:41:19;;;;;;;0.00;0.00;;;10.20;45.40;;;;;;4103492;28;20518;-68
2022/03/06 10:43:48;;;;;;;0.00;0.00;;;9.60;47.00;;;;;;4103030;28;20470;-68
2022/03/06 10:46:21;;;;;;;0.00;0.00;;;10.30;46.10;;;;;;4086748;28;20048;-70
2022/03/06 10:48:53;;;;;;;0.00;0.00;;;10.40;45.70;;;;;;4079693;28;20152;-66
2022/03/06 10:51:18;;;;;;;0.00;0.00;;;10.60;46.20;;;;;;4089824;28;20474;-65
2022/03/06 10:53:42;;;;;;;0.00;0.00;;;10.30;45.40;;;;;;4103214;28;20050;-64
2022/03/06 10:56:10;;;;;;;0.00;0.00;;;10.20;45.70;;;;;;4087272;28;20039;-64
2022/03/06 10:58:35;;;;;;;0.00;0.00;;;9.90;47.10;;;;;;4077103;28;20051;-67
2022/03/06 11:01:17;;;;;;;0.00;0.00;;;10.50;46.90;;;;;;4103137;28;20040;-64
2022/03/06 11:03:43;;;;;;;0.00;0.00;;;11.00;45.90;;;;;;4116354;28;20039;-67
2022/03/06 11:06:07;;;;;;;0.00;0.00;;;11.20;44.40;;;;;;4089401;28;20061;-65
2022/03/06 11:08:30;;;;;;;0.00;0.00;;;11.50;44.40;;;;;;4103282;28;20051;-65
2022/03/06 11:10:55;;;;;;;0.00;0.00;;;11.80;43.50;;;;;;4102669;28;20047;-67
2022/03/06 11:13:17;;;;;;;0.00;0.00;;;11.80;43.80;;;;;;4116430;28;20043;-65
2022/03/06 11:15:41;;;;;;;0.00;0.00;;;12.60;43.10;;;;;;4116331;28;20058;-66
2022/03/06 11:18:08;;;;;;;0.00;0.00;;;13.10;42.30;;;;;;4102770;28;20355;-67
2022/03/06 11:20:39;;;;;;;0.00;0.00;;;12.80;42.30;;;;;;4102451;28;20117;-65
2022/03/06 11:23:23;;;;;;;0.00;0.00;;;13.10;42.40;;;;;;4102775;28;20039;-67
2022/03/06 11:26:03;;;;;;;0.00;0.00;;;14.20;41.30;;;;;;4089550;28;20047;-68
2022/03/06 11:28:48;;;;;;;0.00;0.00;;;14.10;40.60;;;;;;4102360;28;20452;-69
2022/03/06 11:31:14;;;;;;;0.00;0.00;;;14.40;39.60;;;;;;4102785;28;20058;-66
2022/03/06 11:33:54;;;;;;;0.00;0.00;;;14.40;39.80;;;;;;4102889;28;20394;-68
2022/03/06 11:36:21;;;;;;;0.00;0.00;;;14.40;40.10;;;;;;4102705;28;20050;-69
2022/03/06 11:38:48;;;;;;;0.00;0.00;;;14.00;39.90;;;;;;4103085;28;20397;-65
2022/03/06 11:41:11;;;;;;;0.00;0.00;;;13.90;40.50;;;;;;4081272;28;20051;-69
2022/03/06 11:43:53;;;;;;;0.00;0.00;;;14.40;40.10;;;;;;4098897;28;20050;-65
2022/03/06 11:46:28;;;;;;;0.00;0.00;;;14.50;40.00;;;;;;4089186;28;20111;-66
2022/03/06 11:48:56;;;;;;;0.00;0.00;;;15.20;39.20;;;;;;4102951;28;20451;-65
2022/03/06 11:51:21;;;;;;;0.00;0.00;;;15.30;38.90;;;;;;4089428;28;20088;-68
2022/03/06 11:54:07;;;;;;;0.00;0.00;;;16.10;37.90;;;;;;4102478;28;20051;-64
2022/03/06 11:56:35;;;;;;;0.00;0.00;;;16.20;37.90;;;;;;4075633;28;20044;-68
2022/03/06 11:59:03;;;;;;;0.00;0.00;;;16.20;37.80;;;;;;4082688;28;20521;-66
2022/03/06 12:01:29;;;;;;;;;;;17.40;36.00;;;;;;4098050;28;20478;-68
2022/03/06 12:03:54;;;;;;;0.00;0.00;;;18.40;34.50;;;;;;4089126;28;19922;-68
2022/03/06 12:06:21;;;;;;;0.00;0.00;;;19.00;33.40;;;;;;4075105;28;20069;-67
2022/03/06 12:08:47;;;;;;;0.00;0.00;;;18.60;33.50;;;;;;4102448;28;20044;-67
2022/03/06 12:11:11;;;;;;;0.00;0.00;;;17.90;33.70;;;;;;4102469;28;20054;-67
2022/03/06 12:13:41;;;;;;;0.00;0.00;;;17.80;33.90;;;;;;4102548;28;20051;-68
2022/03/06 12:16:08;;;;;;;0.00;0.00;;;18.40;32.70;;;;;;4101994;28;20067;-65
2022/03/06 12:18:31;;;;;;;0.00;0.00;;;17.40;33.80;;;;;;4101659;28;20047;-68
2022/03/06 12:20:55;;;;;;;0.00;0.00;;;17.90;33.30;;;;;;4102738;28;20054;-68
2022/03/06 12:23:28;;;;;;;0.00;0.00;;;17.60;33.60;;;;;;4115557;28;20671;-66
2022/03/06 12:25:59;;;;;;;0.00;0.00;;;17.00;33.80;;;;;;4102159;28;20048;-67
2022/03/06 12:28:31;;;;;;;0.00;0.00;;;17.00;35.00;;;;;;4101673;28;20055;-68
2022/03/06 12:30:57;;;;;;;0.00;0.00;;;17.30;34.90;;;;;;4102418;28;20388;-67
2022/03/06 12:33:25;;;;;;;0.00;0.00;;;17.80;34.60;;;;;;4088414;28;20055;-67
2022/03/06 12:35:48;;;;;;;0.00;0.00;;;17.80;33.50;;;;;;4099387;28;20156;-68
2022/03/06 12:38:23;;;;;;;0.00;0.00;;;17.30;34.50;;;;;;4098833;28;20061;-66
2022/03/06 12:40:47;;;;;;;0.00;0.00;;;17.20;34.90;;;;;;4099788;28;20052;-66
2022/03/06 12:43:12;;;;;;;0.00;0.00;;;17.40;34.90;;;;;;4099313;28;20051;-67
2022/03/06 12:45:36;;;;;;;0.00;0.00;;;17.60;34.60;;;;;;4099372;28;20063;-65
2022/03/06 12:47:59;;;;;;;0.00;0.00;;;17.20;33.90;;;;;;4099552;28;20053;-71